createdAt,value
2017-12-27T00:03:58.402Z,95349.45
2017-12-27T00:06:31.639Z,95337.91
2017-12-27T00:09:17.670Z,95327.91
2017-12-27T00:11:52.180Z,95336.53
2017-12-27T00:14:26.697Z,95333.82
2017-12-27T00:17:01.367Z,95338.81
2017-12-27T00:19:36.076Z,95347.02
2017-12-27T00:22:10.758Z,95347.19
2017-12-27T00:24:45.374Z,95353.36
2017-12-27T00:27:20.463Z,95341.12
2017-12-27T00:29:54.721Z,95333.71
2017-12-27T00:32:21.836Z,95335.17
2017-12-27T00:34:49.545Z,95341.72
2017-12-27T00:37:17.264Z,95351.42
2017-12-27T00:39:45.509Z,95333.61
2017-12-27T00:42:13.615Z,95329.52
2017-12-27T00:44:41.411Z,95330.02
2017-12-27T00:47:09.048Z,95331.13
2017-12-27T00:49:36.742Z,95303.20
2017-12-27T00:52:04.392Z,95330.13
2017-12-27T00:54:32.132Z,95328.91
2017-12-27T00:56:59.890Z,95328.81
2017-12-27T00:59:27.587Z,95314.02
2017-12-27T01:01:55.331Z,95325.69
2017-12-27T01:04:23.805Z,95311.28
2017-12-27T01:06:51.396Z,95299.93
2017-12-27T01:09:19.103Z,95308.98
2017-12-27T01:11:46.715Z,95302.06
2017-12-27T01:14:14.350Z,95303.07
2017-12-27T01:16:42.180Z,95303.33
2017-12-27T01:19:09.870Z,95294.05
2017-12-27T01:21:37.550Z,95298.08
2017-12-27T01:24:06.044Z,95301.91
2017-12-27T01:26:34.302Z,95297.01
2017-12-27T01:29:01.917Z,95296.56
2017-12-27T01:31:29.532Z,95291.23
2017-12-27T01:33:57.296Z,95293.94
2017-12-27T01:36:24.968Z,95293.34
2017-12-27T01:38:52.738Z,95285.23
2017-12-27T01:41:20.836Z,95286.50
2017-12-27T01:43:48.637Z,95282.06
2017-12-27T01:46:16.366Z,95270.64
2017-12-27T01:48:45.488Z,95279.29
2017-12-27T01:51:13.464Z,95281.59
2017-12-27T01:53:41.158Z,95295.70
2017-12-27T01:56:09.850Z,95284.73
2017-12-27T01:58:38.409Z,95297.87
2017-12-27T02:01:06.567Z,95295.47
2017-12-27T02:03:34.209Z,95290.87
2017-12-27T02:06:02.016Z,95288.20
2017-12-27T02:08:31.964Z,95287.57
2017-12-27T02:10:59.615Z,95278.04
2017-12-27T02:13:27.370Z,95268.86
2017-12-27T02:15:55.041Z,95265.57
2017-12-27T02:18:22.630Z,95254.09
2017-12-27T02:20:51.159Z,95249.44
2017-12-27T02:23:19.893Z,95245.98
2017-12-27T02:25:47.936Z,95254.94
2017-12-27T02:28:15.582Z,95253.05
2017-12-27T02:30:43.337Z,95263.63
2017-12-27T02:33:11.148Z,95258.60
2017-12-27T02:35:39.785Z,95267.37
2017-12-27T02:38:07.677Z,95271.84
2017-12-27T02:40:36.501Z,95262.73
2017-12-27T02:43:04.238Z,95263.92
2017-12-27T02:45:32.974Z,95258.63
2017-12-27T02:48:01.172Z,95260.51
2017-12-27T02:50:29.568Z,95256.70
2017-12-27T02:52:57.302Z,95254.05
2017-12-27T02:55:27.128Z,95233.58
2017-12-27T02:57:55.758Z,95255.91
2017-12-27T03:00:23.496Z,95244.51
2017-12-27T03:02:51.308Z,95254.84
2017-12-27T03:05:19.082Z,95238.43
2017-12-27T03:07:47.753Z,95229.42
2017-12-27T03:10:15.428Z,95226.62
2017-12-27T03:12:43.227Z,95228.78
2017-12-27T03:15:10.933Z,95232.63
2017-12-27T03:17:38.622Z,95233.62
2017-12-27T03:20:06.308Z,95220.06
2017-12-27T03:22:34.029Z,95241.98
2017-12-27T03:25:01.723Z,95243.14
2017-12-27T03:27:29.450Z,95234.67
2017-12-27T03:29:57.123Z,95240.10
2017-12-27T03:32:24.862Z,95239.02
2017-12-27T03:34:52.558Z,95233.66
2017-12-27T03:37:20.402Z,95222.98
2017-12-27T03:39:49.983Z,95217.26
2017-12-27T03:42:19.376Z,95215.61
2017-12-27T03:44:47.134Z,95211.55
2017-12-27T03:47:14.790Z,95211.91
2017-12-27T03:49:42.431Z,95213.63
2017-12-27T03:52:13.508Z,95219.11
2017-12-27T03:54:48.878Z,95221.28
2017-12-27T03:57:20.993Z,95223.25
2017-12-27T03:59:50.899Z,95225.38
2017-12-27T04:02:20.487Z,95219.98
2017-12-27T04:04:48.614Z,95218.66
2017-12-27T04:07:16.970Z,95213.39
2017-12-27T04:09:44.895Z,95208.22
2017-12-27T04:12:13.571Z,95207.49
2017-12-27T04:14:41.406Z,95211.48
2017-12-27T04:17:09.647Z,95215.84
2017-12-27T04:19:37.366Z,95215.01
2017-12-27T04:22:05.150Z,95209.73
2017-12-27T04:24:33.226Z,95210.62
2017-12-27T04:27:01.084Z,95206.67
2017-12-27T04:29:28.742Z,95202.36
2017-12-27T04:31:56.413Z,95198.53
2017-12-27T04:34:25.192Z,95212.03
2017-12-27T04:36:53.794Z,95214.13
2017-12-27T04:39:21.660Z,95205.48
2017-12-27T04:41:49.326Z,95203.86
2017-12-27T04:44:17.046Z,95203.66
2017-12-27T04:46:44.758Z,95205.75
2017-12-27T04:49:12.741Z,95218.48
2017-12-27T04:51:40.482Z,95225.16
2017-12-27T04:54:08.282Z,95215.13
2017-12-27T04:56:35.953Z,95217.25
2017-12-27T04:59:03.722Z,95222.95
2017-12-27T05:01:31.526Z,95226.47
2017-12-27T05:03:59.513Z,95234.11
2017-12-27T05:06:27.231Z,95225.84
2017-12-27T05:08:55.372Z,95225.70
2017-12-27T05:11:23.093Z,95224.73
2017-12-27T05:13:50.808Z,95219.63
2017-12-27T05:16:18.567Z,95214.68
2017-12-27T05:18:46.278Z,95202.38
2017-12-27T05:21:14.041Z,95198.59
2017-12-27T05:23:41.742Z,95203.27
2017-12-27T05:26:09.594Z,95203.48
2017-12-27T05:28:37.312Z,95201.85
2017-12-27T05:31:05.411Z,95210.44
2017-12-27T05:33:33.215Z,95200.70
2017-12-27T05:36:01.172Z,95206.55
2017-12-27T05:38:29.066Z,95206.15
2017-12-27T05:40:56.740Z,95208.01
2017-12-27T05:43:24.531Z,95216.45
2017-12-27T05:45:52.124Z,95209.51
2017-12-27T05:48:19.785Z,95210.27
2017-12-27T05:50:47.834Z,95201.77
2017-12-27T05:53:16.530Z,95206.52
2017-12-27T05:55:44.496Z,95203.19
2017-12-27T05:58:12.315Z,95208.40
2017-12-27T06:00:40.070Z,95201.04
2017-12-27T06:03:07.997Z,95160.36
2017-12-27T06:05:35.756Z,95178.13
2017-12-27T06:08:03.501Z,95194.23
2017-12-27T06:10:31.246Z,95194.11
2017-12-27T06:12:59.636Z,95199.15
2017-12-27T06:15:27.369Z,95202.98
2017-12-27T06:17:55.094Z,95197.89
2017-12-27T06:20:22.779Z,95193.80
2017-12-27T06:22:50.592Z,95194.73
2017-12-27T06:25:18.266Z,95210.80
2017-12-27T06:27:46.041Z,95204.92
2017-12-27T06:30:14.416Z,95189.22
2017-12-27T06:32:42.186Z,95187.95
2017-12-27T06:35:10.543Z,95191.37
2017-12-27T06:37:39.297Z,95197.91
2017-12-27T06:40:07.017Z,95194.00
2017-12-27T06:42:36.323Z,95197.75
2017-12-27T06:45:04.921Z,95200.23
2017-12-27T06:47:32.810Z,95183.67
2017-12-27T06:50:01.630Z,95188.59
2017-12-27T06:52:29.544Z,95177.44
2017-12-27T06:54:57.162Z,95188.52
2017-12-27T06:57:24.926Z,95198.29
2017-12-27T06:59:52.748Z,95192.32
2017-12-27T07:02:20.773Z,95204.52
2017-12-27T07:04:48.488Z,95206.14
2017-12-27T07:07:16.472Z,95191.37
2017-12-27T07:09:44.125Z,95193.71
2017-12-27T07:12:11.789Z,95189.02
2017-12-27T07:14:39.507Z,95191.14
2017-12-27T07:17:07.361Z,95183.00
2017-12-27T07:19:35.180Z,95190.30
2017-12-27T07:22:03.980Z,95184.91
2017-12-27T07:24:32.003Z,95173.25
2017-12-27T07:27:01.196Z,95152.38
2017-12-27T07:29:29.029Z,95162.38
2017-12-27T07:31:56.869Z,95186.11
2017-12-27T07:34:24.572Z,95171.39
2017-12-27T07:36:52.247Z,95181.31
2017-12-27T07:39:19.995Z,95172.66
2017-12-27T07:41:48.124Z,95173.05
2017-12-27T07:44:15.930Z,95175.78
2017-12-27T07:46:44.025Z,95170.27
2017-12-27T07:49:11.857Z,95179.67
2017-12-27T07:51:41.411Z,95161.60
2017-12-27T07:54:09.147Z,95175.48
2017-12-27T07:56:37.803Z,95168.29
2017-12-27T07:59:09.325Z,95170.83
2017-12-27T08:01:37.197Z,95172.00
2017-12-27T08:04:05.105Z,95178.13
2017-12-27T08:06:33.072Z,95176.94
2017-12-27T08:09:00.814Z,95169.45
2017-12-27T08:11:29.425Z,95177.09
2017-12-27T08:13:57.297Z,95182.72
2017-12-27T08:16:25.886Z,95175.91
2017-12-27T08:18:53.749Z,95154.27
2017-12-27T08:21:21.441Z,95157.38
2017-12-27T08:23:49.190Z,95179.59
2017-12-27T08:26:16.930Z,95158.44
2017-12-27T08:28:51.853Z,95170.61
2017-12-27T08:31:21.455Z,95167.20
2017-12-27T08:33:54.003Z,95136.80
2017-12-27T08:36:23.045Z,95140.23
2017-12-27T08:38:51.531Z,95148.64
2017-12-27T08:41:19.754Z,95152.95
2017-12-27T08:43:48.717Z,95137.18
2017-12-27T08:46:40.843Z,95144.98
2017-12-27T08:49:27.777Z,95145.09
2017-12-27T08:51:56.214Z,95101.73
2017-12-27T08:54:23.988Z,95147.45
2017-12-27T08:56:54.403Z,95142.98
2017-12-27T08:59:22.157Z,95145.69
2017-12-27T09:01:50.116Z,95153.96
2017-12-27T09:04:17.955Z,95138.50
2017-12-27T09:06:47.557Z,95135.98
2017-12-27T09:09:16.196Z,95128.80
2017-12-27T09:11:44.837Z,95126.48
2017-12-27T09:14:13.895Z,95127.44
2017-12-27T09:16:42.124Z,95116.73
2017-12-27T09:19:10.463Z,95116.72
2017-12-27T09:21:39.912Z,95107.75
2017-12-27T09:24:12.405Z,95102.93
2017-12-27T09:26:40.610Z,95110.07
2017-12-27T09:29:10.968Z,95104.72
2017-12-27T09:31:39.022Z,95103.45
2017-12-27T09:34:07.554Z,95090.53
2017-12-27T09:36:36.483Z,95070.02
2017-12-27T09:39:16.681Z,95088.33
2017-12-27T09:47:12.836Z,95074.69
2017-12-27T09:49:41.249Z,95082.89
2017-12-27T09:52:09.506Z,95057.11
2017-12-27T09:54:37.788Z,95072.39
2017-12-27T09:57:07.798Z,95065.98
2017-12-27T09:59:37.299Z,95074.19
2017-12-27T10:02:06.292Z,95000.91
2017-12-27T10:04:36.431Z,95050.64
2017-12-27T10:07:04.265Z,95045.53
2017-12-27T10:09:35.889Z,95039.14
2017-12-27T10:12:03.928Z,95049.94
2017-12-27T10:14:32.247Z,95033.63
2017-12-27T10:17:06.890Z,95036.80
2017-12-27T10:19:55.498Z,95041.78
2017-12-27T10:29:20.618Z,95007.70
2017-12-27T10:31:51.108Z,95018.02
2017-12-27T10:34:19.752Z,95022.98
2017-12-27T10:36:50.702Z,95007.06
2017-12-27T10:43:47.880Z,95000.41
2017-12-27T10:46:17.709Z,95001.06
2017-12-27T10:48:45.653Z,94984.17
2017-12-27T10:51:13.571Z,94989.98
2017-12-27T10:53:41.666Z,94983.73
2017-12-27T10:56:16.164Z,94970.56
2017-12-27T10:58:54.351Z,94983.95
2017-12-27T11:01:34.619Z,94991.38
2017-12-27T11:04:07.086Z,94967.51
2017-12-27T11:06:43.743Z,94962.59
2017-12-27T11:12:51.257Z,94961.88
2017-12-27T15:17:40.487Z,94653.23
2017-12-27T15:20:08.110Z,94664.77
2017-12-27T15:22:36.399Z,94668.47
2017-12-27T15:25:04.063Z,94673.50
2017-12-27T15:27:31.712Z,94663.82
2017-12-27T15:30:03.193Z,94658.19
2017-12-27T15:32:42.775Z,94666.48
2017-12-27T15:35:10.531Z,94670.11
2017-12-27T15:48:12.094Z,94666.08
2017-12-27T15:50:44.593Z,94691.84
2017-12-27T15:53:16.395Z,94664.84
2017-12-27T15:55:49.921Z,94673.73
2017-12-27T15:58:18.017Z,94673.61
2017-12-27T16:00:45.959Z,94666.44
2017-12-27T16:03:13.925Z,94644.80
2017-12-27T16:05:42.750Z,94669.52
2017-12-27T16:08:10.756Z,94665.77
2017-12-27T16:10:40.187Z,94620.62
2017-12-27T16:13:08.317Z,94673.45
2017-12-27T16:15:40.055Z,94666.79
2017-12-27T16:18:07.943Z,94649.42
2017-12-27T16:20:39.273Z,94663.59
2017-12-27T16:23:09.661Z,94666.76
2017-12-27T16:25:37.457Z,94670.32
2017-12-27T16:28:08.484Z,94669.69
2017-12-27T16:30:38.328Z,94649.84
2017-12-27T16:33:08.737Z,94663.55
2017-12-27T16:35:36.516Z,94665.45
2017-12-27T16:38:05.099Z,94646.66
2017-12-27T16:40:33.269Z,94656.05
2017-12-27T16:43:01.077Z,94672.30
2017-12-27T16:45:29.314Z,94652.09
2017-12-27T16:47:58.096Z,94648.12
2017-12-27T16:50:26.730Z,94660.11
2017-12-27T16:53:24.717Z,94660.63
2017-12-27T16:55:57.896Z,94654.60
2017-12-27T16:58:25.990Z,94643.30
2017-12-27T17:00:54.147Z,94639.53
2017-12-27T17:03:21.967Z,94647.38
2017-12-27T17:05:50.401Z,94653.45
2017-12-27T17:11:03.270Z,94665.61
2017-12-27T17:13:33.338Z,94673.58
2017-12-27T17:16:01.948Z,94657.87
2017-12-27T17:18:30.871Z,94682.43
2017-12-27T17:23:31.523Z,94633.46
2017-12-27T17:25:59.487Z,94643.19
2017-12-27T17:28:28.252Z,94654.23
2017-12-27T17:30:58.797Z,94614.55
2017-12-27T17:33:42.434Z,94623.69
2017-12-27T17:36:22.056Z,94634.09
2017-12-27T17:38:51.963Z,94632.80
2017-12-27T17:45:32.683Z,94626.27
2017-12-27T17:48:01.446Z,94630.03
2017-12-27T17:50:37.797Z,94642.85
2017-12-27T17:53:05.622Z,94640.03
2017-12-27T17:55:33.767Z,94634.19
2017-12-27T17:58:02.090Z,94621.73
2017-12-27T18:00:30.086Z,94629.37
2017-12-27T18:02:57.826Z,94623.45
2017-12-27T18:05:26.236Z,94626.73
2017-12-27T18:07:54.061Z,94642.78
2017-12-27T18:10:22.289Z,94647.09
2017-12-27T18:12:50.098Z,94637.30
2017-12-27T18:15:17.934Z,94625.63
2017-12-27T18:17:45.605Z,94649.41
2017-12-27T18:20:13.335Z,94658.92
2017-12-27T18:22:41.257Z,94641.76
2017-12-27T18:25:08.964Z,94646.85
2017-12-27T18:27:36.885Z,94673.67
2017-12-27T18:30:12.660Z,94650.45
2017-12-27T18:32:40.560Z,94621.72
2017-12-27T18:35:08.191Z,94598.05
2017-12-27T18:37:35.898Z,94615.38
2017-12-27T18:40:03.821Z,94628.44
2017-12-27T18:42:31.675Z,94620.48
2017-12-27T18:44:59.370Z,94608.17
2017-12-27T18:47:27.146Z,94624.06
2017-12-27T18:49:54.934Z,94631.50
2017-12-27T18:52:22.890Z,94619.77
2017-12-27T18:54:50.588Z,94619.12
2017-12-27T18:57:18.335Z,94608.20
2017-12-27T18:59:46.028Z,94604.77
2017-12-27T19:02:14.762Z,94619.44
2017-12-27T19:04:42.653Z,94628.75
2017-12-27T19:07:10.925Z,94622.42
2017-12-27T19:09:39.732Z,94619.74
2017-12-27T19:12:07.387Z,94629.48
2017-12-27T19:14:35.034Z,94624.72
2017-12-27T19:17:03.533Z,94610.61
2017-12-27T19:19:31.463Z,94607.34
2017-12-27T19:21:59.182Z,94609.72
2017-12-27T19:24:29.621Z,94596.89
2017-12-27T19:26:58.173Z,94603.10
2017-12-27T19:29:26.440Z,94606.44
2017-12-27T19:31:54.226Z,94614.30
2017-12-27T19:34:22.123Z,94610.95
2017-12-27T19:36:51.037Z,94601.37
2017-12-27T19:39:19.289Z,94607.48
2017-12-27T19:41:47.220Z,94606.02
2017-12-27T19:44:15.159Z,94614.64
2017-12-27T19:46:44.094Z,94603.09
2017-12-27T19:49:11.754Z,94608.36
2017-12-27T19:51:39.535Z,94598.92
2017-12-27T19:54:07.572Z,94578.39
2017-12-27T19:56:35.435Z,94603.41
2017-12-27T19:59:03.420Z,94597.56
2017-12-27T20:01:31.987Z,94583.02
2017-12-27T20:03:59.785Z,94598.88
2017-12-27T20:06:27.918Z,94595.95
2017-12-27T20:08:55.659Z,94580.11
2017-12-27T20:11:23.264Z,94591.42
2017-12-27T20:13:54.873Z,94592.35
2017-12-27T20:19:01.525Z,94573.25
2017-12-27T20:21:44.690Z,94562.65
2017-12-27T20:27:30.427Z,94573.87
2017-12-27T20:30:13.403Z,94598.00
2017-12-27T20:32:43.313Z,94588.06
2017-12-27T20:35:12.430Z,94573.08
2017-12-27T20:37:40.420Z,94570.07
2017-12-27T20:40:13.562Z,94572.21
2017-12-27T20:42:44.534Z,94579.67
2017-12-27T20:45:12.573Z,94576.56
2017-12-27T20:47:41.237Z,94576.22
2017-12-27T20:50:23.611Z,94562.98
2017-12-27T20:53:09.408Z,94560.88
2017-12-27T20:55:45.200Z,94568.06
2017-12-27T20:58:15.996Z,94544.14
2017-12-27T21:00:44.306Z,94540.15
2017-12-27T21:03:12.335Z,94545.65
2017-12-27T21:08:50.825Z,94543.63
2017-12-27T21:11:18.894Z,94540.22
2017-12-27T21:13:47.511Z,94549.09
2017-12-27T21:16:15.948Z,94557.56
2017-12-27T21:22:13.242Z,94540.99
2017-12-27T21:24:42.493Z,94536.19
2017-12-27T21:27:11.215Z,94522.48
2017-12-27T21:29:39.081Z,94532.96
2017-12-27T21:32:06.989Z,94510.97
2017-12-27T21:34:35.007Z,94515.25
2017-12-27T21:37:02.913Z,94529.50
2017-12-27T21:39:32.604Z,94536.95
2017-12-27T21:42:02.647Z,94533.72
2017-12-27T21:44:30.664Z,94519.51
2017-12-27T21:46:58.611Z,94512.77
2017-12-27T21:49:32.042Z,94519.23
2017-12-27T21:52:06.648Z,94522.80
2017-12-27T21:54:52.961Z,94515.80
2017-12-27T22:00:19.173Z,94522.45
2017-12-27T22:02:48.614Z,94513.86
2017-12-27T22:05:18.553Z,94519.45
2017-12-27T22:07:47.389Z,94528.00
2017-12-27T22:10:15.890Z,94515.67
2017-12-27T22:12:44.285Z,94495.19
2017-12-27T22:15:13.993Z,94481.13
2017-12-27T22:17:43.480Z,94497.98
2017-12-27T22:33:24.377Z,94484.72
2017-12-27T22:36:04.693Z,94473.27
2017-12-27T22:38:36.595Z,94475.20
2017-12-27T22:41:06.505Z,94480.83
2017-12-27T22:43:38.544Z,94464.38
2017-12-27T22:46:07.390Z,94443.89
2017-12-27T22:48:37.385Z,94442.66
2017-12-27T22:51:06.207Z,94452.84
2017-12-27T22:53:33.961Z,94433.89
2017-12-27T22:56:01.804Z,94431.19
2017-12-27T22:58:29.683Z,94443.61
2017-12-27T23:00:57.533Z,94430.29
2017-12-27T23:03:26.007Z,94441.51
2017-12-27T23:05:53.886Z,94443.37
2017-12-27T23:08:22.211Z,94419.37
2017-12-27T23:10:50.085Z,94403.44
2017-12-27T23:13:18.245Z,94411.47
2017-12-27T23:15:46.102Z,94426.73
2017-12-27T23:18:14.702Z,94425.76
2017-12-27T23:20:42.481Z,94444.47
2017-12-27T23:23:10.657Z,94435.73
2017-12-27T23:25:52.163Z,94431.92
2017-12-27T23:28:19.998Z,94428.16
2017-12-27T23:30:48.608Z,94425.48
2017-12-27T23:33:16.981Z,94424.20
2017-12-27T23:35:46.293Z,94437.84
2017-12-27T23:38:15.291Z,94412.02
2017-12-27T23:40:45.914Z,94406.28
2017-12-27T23:43:13.599Z,94387.69
2017-12-27T23:45:41.672Z,94399.00
2017-12-27T23:48:13.842Z,94406.33
2017-12-27T23:50:41.796Z,94396.66
2017-12-27T23:53:11.636Z,94407.27
2017-12-27T23:55:39.541Z,94395.50
2017-12-27T23:58:09.888Z,94399.80
